Time;durP1;ratioP1;P1;durP2;ratioP2;P2;SDS_P1;SDS_P2;PMS_P1;PMS_P2;Temp;Humidity;BMP_temperature;BMP_pressure;BME280_temperature;BME280_humidity;BME280_pressure;Samples;Min_cycle;Max_cycle;Signal;HPM_P1;HPM_P2
2021/12/29 00:00:14;;;;;;;14.90;12.87;;;8.10;99.90;;;;;;4994388;28;20203;-77
2021/12/29 00:02:42;;;;;;;14.03;12.60;;;8.10;99.90;;;;;;5009163;28;20243;-77
2021/12/29 00:05:10;;;;;;;14.77;12.53;;;8.10;99.90;;;;;;4992816;28;20665;-77
2021/12/29 00:07:37;;;;;;;13.53;12.17;;;8.10;99.90;;;;;;4998213;28;20579;-76
2021/12/29 00:10:05;;;;;;;13.30;11.93;;;8.10;99.90;;;;;;4997387;28;20210;-77
2021/12/29 00:12:40;;;;;;;13.30;11.97;;;8.20;99.90;;;;;;4995251;28;20214;-77
2021/12/29 00:15:07;;;;;;;15.70;12.20;;;8.20;99.90;;;;;;5012888;28;20704;-77
2021/12/29 00:17:34;;;;;;;14.77;12.90;;;8.20;99.90;;;;;;4996642;28;20228;-77
2021/12/29 00:20:01;;;;;;;14.87;11.93;;;8.20;99.90;;;;;;4996775;28;20210;-77
2021/12/29 00:22:28;;;;;;;13.37;12.00;;;8.20;99.90;;;;;;5005064;28;20207;-77
2021/12/29 00:24:55;;;;;;;14.10;11.90;;;8.20;99.90;;;;;;4998359;28;20195;-77
2021/12/29 00:27:22;;;;;;;13.00;11.90;;;8.10;99.90;;;;;;4996902;28;20610;-77
2021/12/29 00:29:50;;;;;;;14.00;12.07;;;8.20;99.90;;;;;;4997120;28;20218;-77
2021/12/29 00:32:35;;;;;;;13.40;12.17;;;8.20;99.90;;;;;;4995578;28;20198;-76
2021/12/29 00:35:21;;;;;;;13.13;12.03;;;8.20;99.90;;;;;;4998451;28;20246;-77
2021/12/29 00:38:07;;;;;;;13.83;12.57;;;8.20;99.90;;;;;;4998050;28;20234;-77
2021/12/29 00:40:57;;;;;;;13.53;11.90;;;8.20;99.90;;;;;;4997321;28;20262;-77
2021/12/29 00:43:44;;;;;;;12.93;11.73;;;8.20;99.90;;;;;;4995702;28;20491;-77
2021/12/29 00:46:52;;;;;;;14.23;11.93;;;8.10;99.90;;;;;;4975885;28;20868;-77
2021/12/29 00:49:19;;;;;;;13.07;11.70;;;8.10;99.90;;;;;;4993110;28;20217;-76
2021/12/29 00:51:47;;;;;;;13.43;11.73;;;8.10;99.90;;;;;;4997454;28;20229;-77
2021/12/29 00:54:14;;;;;;;15.50;12.83;;;8.10;99.90;;;;;;4994514;28;20214;-77
2021/12/29 00:56:43;;;;;;;12.87;11.93;;;8.10;99.90;;;;;;4995944;28;20204;-76
2021/12/29 00:59:10;;;;;;;14.83;12.53;;;8.10;99.90;;;;;;4997314;28;20200;-77
2021/12/29 01:01:37;;;;;;;17.33;12.83;;;8.20;99.90;;;;;;5001420;28;20576;-77
2021/12/29 01:04:05;;;;;;;14.10;12.70;;;8.20;99.90;;;;;;4978262;28;20214;-76
2021/12/29 01:06:32;;;;;;;12.50;11.40;;;8.20;99.90;;;;;;4996993;28;20188;-77
2021/12/29 01:08:59;;;;;;;13.90;12.10;;;8.20;99.90;;;;;;4992530;28;20210;-77
2021/12/29 01:11:26;;;;;;;12.30;11.50;;;8.20;99.90;;;;;;4996695;28;20195;-77
2021/12/29 01:13:53;;;;;;;12.97;11.80;;;8.20;99.90;;;;;;4994954;28;20207;-77
2021/12/29 01:16:38;;;;;;;13.37;12.17;;;8.20;99.90;;;;;;4994265;28;20209;-76
2021/12/29 01:19:10;;;;;;;13.73;12.40;;;8.20;99.90;;;;;;4997023;28;20198;-77
2021/12/29 01:21:38;;;;;;;12.70;11.60;;;8.20;99.90;;;;;;4992383;28;20377;-77
2021/12/29 01:24:07;;;;;;;12.77;11.60;;;8.20;99.90;;;;;;4990151;28;20208;-77
2021/12/29 01:26:35;;;;;;;15.70;12.20;;;8.30;99.90;;;;;;4996836;28;20198;-77
2021/12/29 01:29:02;;;;;;;12.77;11.67;;;8.30;99.90;;;;;;4997222;28;20217;-76
2021/12/29 01:31:29;;;;;;;12.57;11.57;;;8.30;99.90;;;;;;5012085;28;20558;-77
2021/12/29 01:33:56;;;;;;;12.83;11.90;;;8.30;99.90;;;;;;4993127;28;20213;-77
2021/12/29 01:36:24;;;;;;;13.00;11.80;;;8.20;99.90;;;;;;4992510;28;20224;-77
2021/12/29 01:38:51;;;;;;;12.80;11.47;;;8.20;99.90;;;;;;4992275;28;20218;-77
2021/12/29 01:41:18;;;;;;;12.27;11.33;;;8.20;99.90;;;;;;4996755;28;20200;-77
2021/12/29 01:43:45;;;;;;;11.77;10.87;;;8.30;99.90;;;;;;4993523;28;20257;-77
2021/12/29 01:46:12;;;;;;;12.73;11.50;;;8.30;99.90;;;;;;5012225;28;20210;-77
2021/12/29 01:48:39;;;;;;;12.27;11.27;;;8.20;99.90;;;;;;4994197;28;20254;-76
2021/12/29 01:51:06;;;;;;;12.43;11.23;;;8.20;99.90;;;;;;4994899;28;20222;-77
2021/12/29 01:53:35;;;;;;;11.80;10.90;;;8.30;99.90;;;;;;4995317;28;20196;-77
2021/12/29 01:56:03;;;;;;;12.47;11.40;;;8.30;99.90;;;;;;4992876;28;20593;-76
2021/12/29 01:58:30;;;;;;;11.70;10.90;;;8.20;99.90;;;;;;4996226;28;20709;-77
2021/12/29 02:00:59;;;;;;;13.30;12.00;;;8.20;99.90;;;;;;4992678;28;20201;-77
2021/12/29 02:03:27;;;;;;;12.57;11.43;;;8.20;99.90;;;;;;4996554;28;20199;-77
2021/12/29 02:05:54;;;;;;;11.47;10.67;;;8.20;99.90;;;;;;5011664;28;20578;-77
2021/12/29 02:08:23;;;;;;;11.07;10.37;;;8.20;99.90;;;;;;4993721;28;20215;-77
2021/12/29 02:10:55;;;;;;;12.00;11.10;;;8.20;99.90;;;;;;4996479;28;20207;-77
2021/12/29 02:13:23;;;;;;;12.20;11.00;;;8.20;99.90;;;;;;4994470;28;20255;-77
2021/12/29 02:15:50;;;;;;;12.50;11.43;;;8.20;99.90;;;;;;4994768;28;20224;-76
2021/12/29 02:18:20;;;;;;;11.50;10.60;;;8.20;99.90;;;;;;4995731;28;20232;-77
2021/12/29 02:20:53;;;;;;;11.93;10.93;;;8.20;99.90;;;;;;4992674;28;20209;-77
2021/12/29 02:23:26;;;;;;;12.23;11.13;;;8.20;99.90;;;;;;4994269;28;20223;-77
2021/12/29 02:25:55;;;;;;;11.73;10.97;;;8.20;99.90;;;;;;4994921;28;20280;-77
2021/12/29 02:28:26;;;;;;;12.30;11.30;;;8.20;99.90;;;;;;4991576;28;20232;-77
2021/12/29 02:30:55;;;;;;;11.07;10.37;;;8.20;99.90;;;;;;4995443;28;20200;-76
2021/12/29 02:33:24;;;;;;;12.83;11.73;;;8.20;99.90;;;;;;4995999;28;20201;-77
2021/12/29 02:35:52;;;;;;;12.23;11.33;;;8.20;99.90;;;;;;5011097;28;20297;-77
2021/12/29 02:38:25;;;;;;;12.20;11.23;;;8.20;99.90;;;;;;4995304;28;20224;-77
2021/12/29 02:40:54;;;;;;;11.70;10.90;;;8.20;99.90;;;;;;4995839;28;20199;-77
2021/12/29 02:43:22;;;;;;;11.63;10.73;;;8.10;99.90;;;;;;4993586;28;20692;-77
2021/12/29 02:45:58;;;;;;;11.73;10.83;;;8.20;99.90;;;;;;4994716;28;20195;-77
2021/12/29 02:48:26;;;;;;;11.87;11.13;;;8.20;99.90;;;;;;4984163;28;20221;-77
2021/12/29 02:50:56;;;;;;;11.80;11.00;;;8.20;99.90;;;;;;4991225;28;20242;-77
2021/12/29 02:53:24;;;;;;;11.67;10.87;;;8.20;99.90;;;;;;4995105;28;20215;-77
2021/12/29 02:55:51;;;;;;;11.53;10.73;;;8.20;99.90;;;;;;5010541;28;20696;-77
2021/12/29 02:58:18;;;;;;;11.73;10.93;;;8.20;99.90;;;;;;4991716;28;20598;-77
2021/12/29 03:00:45;;;;;;;12.10;11.20;;;8.20;99.90;;;;;;4992489;28;20552;-77
2021/12/29 03:03:16;;;;;;;12.90;11.90;;;8.20;99.90;;;;;;4990889;28;20201;-77
2021/12/29 03:05:44;;;;;;;12.73;11.50;;;8.20;99.90;;;;;;4993693;28;20228;-77
2021/12/29 03:08:13;;;;;;;12.20;11.40;;;8.20;99.90;;;;;;4991191;28;20219;-77
2021/12/29 03:10:41;;;;;;;12.57;11.40;;;8.20;99.90;;;;;;4995492;28;20199;-77
2021/12/29 03:13:08;;;;;;;12.47;11.47;;;8.20;99.90;;;;;;4994727;28;20197;-77
2021/12/29 03:15:36;;;;;;;12.60;11.53;;;8.20;99.90;;;;;;4995005;28;20204;-77
2021/12/29 03:18:04;;;;;;;12.27;11.47;;;8.30;99.90;;;;;;4991709;28;20226;-77
2021/12/29 03:20:31;;;;;;;12.30;11.27;;;8.20;99.90;;;;;;4992756;28;20208;-77
2021/12/29 03:22:58;;;;;;;12.50;11.50;;;8.30;99.90;;;;;;4993907;28;20262;-77
2021/12/29 03:25:27;;;;;;;12.73;11.87;;;8.30;99.90;;;;;;4993777;28;20203;-77
2021/12/29 03:27:58;;;;;;;12.50;11.70;;;8.30;99.90;;;;;;4994324;28;20227;-77
2021/12/29 03:30:27;;;;;;;12.40;11.40;;;8.30;99.90;;;;;;4995505;28;20203;-77
2021/12/29 03:33:03;;;;;;;12.60;11.60;;;8.30;99.90;;;;;;5009919;28;20205;-77
2021/12/29 03:35:32;;;;;;;12.30;11.30;;;8.30;99.90;;;;;;4987535;28;20212;-76
2021/12/29 03:38:00;;;;;;;12.27;11.47;;;8.30;99.90;;;;;;4990533;28;20234;-77
2021/12/29 03:40:29;;;;;;;12.00;11.20;;;8.30;99.90;;;;;;4994775;28;20267;-77
2021/12/29 03:42:56;;;;;;;13.10;12.13;;;8.40;99.90;;;;;;4994599;28;20195;-76
2021/12/29 03:45:24;;;;;;;13.97;12.07;;;8.30;99.90;;;;;;4994672;28;20308;-77
2021/12/29 03:47:51;;;;;;;12.37;11.50;;;8.30;99.90;;;;;;4993344;28;20220;-77
2021/12/29 03:50:18;;;;;;;12.07;11.20;;;8.40;99.90;;;;;;4993479;28;20220;-76
2021/12/29 03:52:45;;;;;;;12.30;11.50;;;8.40;99.90;;;;;;4994145;28;20204;-76
2021/12/29 03:55:12;;;;;;;12.37;11.50;;;8.40;99.90;;;;;;4993598;28;20259;-77
2021/12/29 03:57:41;;;;;;;13.07;12.03;;;8.40;99.90;;;;;;4994108;28;20230;-76
2021/12/29 04:00:12;;;;;;;13.47;12.47;;;8.30;99.90;;;;;;4994336;28;20208;-77
2021/12/29 04:02:39;;;;;;;12.20;11.33;;;8.30;99.90;;;;;;4992745;28;20243;-77
2021/12/29 04:05:08;;;;;;;11.73;10.93;;;8.30;99.90;;;;;;4994277;28;20210;-77
2021/12/29 04:07:35;;;;;;;12.33;11.53;;;8.40;99.90;;;;;;4993344;28;20319;-77
2021/12/29 04:10:03;;;;;;;12.30;11.60;;;8.40;99.90;;;;;;4994673;28;20257;-77
2021/12/29 04:12:30;;;;;;;13.03;12.10;;;8.40;99.90;;;;;;4994955;28;20204;-77
2021/12/29 04:14:59;;;;;;;12.40;11.40;;;8.40;99.90;;;;;;4993885;28;20603;-77
2021/12/29 04:17:36;;;;;;;12.20;11.40;;;8.40;99.90;;;;;;4993850;28;20240;-77
2021/12/29 04:22:48;;;;;;;12.03;11.20;;;8.40;99.90;;;;;;4989104;28;20176;-77
2021/12/29 04:25:15;;;;;;;11.73;11.10;;;8.40;99.90;;;;;;4991491;28;20208;-77
2021/12/29 04:27:43;;;;;;;12.33;11.30;;;8.40;99.90;;;;;;5029848;22;20613;-77
2021/12/29 04:30:11;;;;;;;12.73;11.80;;;8.40;99.90;;;;;;5011679;28;20226;-77
2021/12/29 04:32:38;;;;;;;13.67;12.40;;;8.30;99.90;;;;;;5006581;28;20198;-77
2021/12/29 04:35:06;;;;;;;12.53;11.60;;;8.30;99.90;;;;;;5018452;28;20197;-78
2021/12/29 04:37:32;;;;;;;12.27;11.53;;;8.30;99.90;;;;;;4999611;28;20242;-79
2021/12/29 04:39:59;;;;;;;12.10;11.30;;;8.30;99.90;;;;;;5007185;28;20195;-80
2021/12/29 04:42:26;;;;;;;11.93;11.23;;;8.30;99.90;;;;;;5015398;28;20605;-78
2021/12/29 04:44:53;;;;;;;12.87;11.93;;;8.30;99.90;;;;;;5014115;28;20674;-79
2021/12/29 04:47:27;;;;;;;11.93;11.17;;;8.30;99.90;;;;;;5012826;28;20654;-78
2021/12/29 04:49:54;;;;;;;11.97;11.10;;;8.40;99.90;;;;;;5007659;28;20241;-80
2021/12/29 04:52:21;;;;;;;12.20;11.40;;;8.30;99.90;;;;;;5010313;28;20672;-79
2021/12/29 04:54:48;;;;;;;11.83;11.03;;;8.40;99.90;;;;;;5013030;28;20196;-79
2021/12/29 04:57:15;;;;;;;12.17;11.27;;;8.40;99.90;;;;;;5008559;28;20728;-78
2021/12/29 04:59:43;;;;;;;12.33;11.33;;;8.40;99.90;;;;;;5012519;28;20242;-79
2021/12/29 05:02:10;;;;;;;12.30;11.50;;;8.40;99.90;;;;;;5015213;28;20199;-79
2021/12/29 05:04:46;;;;;;;11.93;11.03;;;8.40;99.90;;;;;;5015780;28;20591;-81
2021/12/29 05:09:59;;;;;;;11.33;10.63;;;8.40;99.90;;;;;;5010731;28;20567;-82
2021/12/29 05:12:26;;;;;;;11.87;11.17;;;8.40;99.90;;;;;;5013838;28;20614;-82
2021/12/29 05:14:53;;;;;;;12.00;11.20;;;8.40;99.90;;;;;;5014286;28;20193;-82
2021/12/29 05:17:20;;;;;;;11.70;10.90;;;8.40;99.90;;;;;;5014561;28;20216;-82
2021/12/29 05:19:48;;;;;;;11.57;10.97;;;8.40;99.90;;;;;;5015182;28;20201;-82
2021/12/29 05:22:15;;;;;;;11.60;10.87;;;8.40;99.90;;;;;;5016111;28;20196;-83
2021/12/29 05:24:42;;;;;;;11.80;11.10;;;8.40;99.90;;;;;;5014925;28;20204;-82
2021/12/29 05:27:09;;;;;;;11.90;11.20;;;8.40;99.90;;;;;;5014562;28;20210;-83
2021/12/29 05:29:36;;;;;;;12.00;11.30;;;8.40;99.90;;;;;;5015074;28;20203;-83
2021/12/29 05:32:04;;;;;;;11.80;11.10;;;8.40;99.90;;;;;;5015185;28;20207;-82
2021/12/29 05:34:31;;;;;;;12.20;11.00;;;8.40;99.90;;;;;;5014638;28;20208;-82
2021/12/29 05:36:59;;;;;;;11.23;10.60;;;8.40;99.90;;;;;;5012311;28;20220;-82
2021/12/29 05:39:26;;;;;;;12.30;11.30;;;8.40;99.90;;;;;;5014220;28;20216;-82
2021/12/29 05:41:53;;;;;;;12.63;11.63;;;8.40;99.90;;;;;;5012763;28;20206;-81
2021/12/29 05:44:20;;;;;;;12.23;11.43;;;8.30;99.90;;;;;;5014535;28;20736;-82
2021/12/29 05:46:47;;;;;;;12.27;11.50;;;8.30;99.90;;;;;;5023634;28;20467;-79
2021/12/29 05:49:14;;;;;;;11.90;11.20;;;8.30;99.90;;;;;;5010927;28;20224;-79
2021/12/29 05:51:41;;;;;;;12.03;11.13;;;8.30;99.90;;;;;;5016993;28;20204;-79
2021/12/29 05:54:10;;;;;;;12.47;11.67;;;8.30;99.90;;;;;;5017405;28;20200;-78
2021/12/29 05:56:38;;;;;;;11.80;11.10;;;8.30;99.90;;;;;;5015461;28;20219;-78
2021/12/29 05:59:06;;;;;;;12.10;11.17;;;8.30;99.90;;;;;;5016583;28;20648;-83
2021/12/29 06:01:33;;;;;;;12.63;11.70;;;8.30;99.90;;;;;;5015955;28;20204;-81
2021/12/29 06:04:00;;;;;;;12.27;11.37;;;8.30;99.90;;;;;;5017699;28;20204;-82
2021/12/29 06:06:27;;;;;;;12.40;11.60;;;8.30;99.90;;;;;;5019299;28;20561;-76
2021/12/29 06:08:53;;;;;;;12.00;11.30;;;8.30;99.90;;;;;;5022365;28;20220;-81
2021/12/29 06:11:22;;;;;;;11.90;11.20;;;8.30;99.90;;;;;;5020409;28;20204;-81
2021/12/29 06:13:49;;;;;;;12.20;11.40;;;8.40;99.90;;;;;;5017014;28;20200;-79
2021/12/29 06:16:15;;;;;;;11.90;11.20;;;8.30;99.90;;;;;;5014713;28;20229;-81
2021/12/29 06:18:44;;;;;;;12.40;11.63;;;8.30;99.90;;;;;;5019272;28;20237;-81
2021/12/29 06:21:16;;;;;;;12.30;11.60;;;8.30;99.90;;;;;;5020182;28;20294;-81
2021/12/29 06:23:43;;;;;;;12.10;11.20;;;8.20;99.90;;;;;;5017238;28;20264;-82
2021/12/29 06:26:10;;;;;;;11.90;11.20;;;8.20;99.90;;;;;;5017639;28;20204;-81
2021/12/29 06:28:40;;;;;;;12.20;11.50;;;8.20;99.90;;;;;;5020189;28;20239;-81
2021/12/29 06:31:07;;;;;;;12.00;11.20;;;8.20;99.90;;;;;;5020572;28;20666;-80
2021/12/29 06:33:34;;;;;;;12.23;11.53;;;8.20;99.90;;;;;;5020040;28;20210;-82
2021/12/29 06:36:01;;;;;;;11.90;11.20;;;8.20;99.90;;;;;;5020139;28;20198;-83
2021/12/29 06:38:27;;;;;;;12.50;11.70;;;8.20;99.90;;;;;;5019874;28;20207;-81
2021/12/29 06:40:54;;;;;;;12.13;11.43;;;8.20;99.90;;;;;;5016765;28;20211;-80
2021/12/29 06:43:21;;;;;;;12.17;11.40;;;8.20;99.90;;;;;;5018431;28;20205;-80
2021/12/29 06:45:51;;;;;;;11.97;11.27;;;8.20;99.90;;;;;;5015367;28;20204;-80
2021/12/29 06:48:18;;;;;;;11.97;11.23;;;8.20;99.90;;;;;;5009646;28;20228;-79
2021/12/29 06:50:45;;;;;;;12.13;11.37;;;8.20;99.90;;;;;;5014832;28;20194;-79
2021/12/29 06:53:12;;;;;;;11.87;11.17;;;8.20;99.90;;;;;;5014043;28;20207;-78
2021/12/29 06:55:42;;;;;;;12.20;11.40;;;8.30;99.90;;;;;;5012524;28;20196;-78
2021/12/29 06:58:09;;;;;;;12.20;11.50;;;8.20;99.90;;;;;;5014811;28;20228;-79
2021/12/29 07:00:36;;;;;;;12.30;11.50;;;8.20;99.90;;;;;;5012931;28;20195;-78
2021/12/29 07:03:05;;;;;;;12.77;11.87;;;8.30;99.90;;;;;;5015109;28;20208;-78
2021/12/29 07:05:32;;;;;;;13.00;12.20;;;8.30;99.90;;;;;;5015795;28;20194;-78
2021/12/29 07:07:59;;;;;;;12.40;11.70;;;8.30;99.90;;;;;;5014780;28;20228;-78
2021/12/29 07:10:26;;;;;;;13.30;12.30;;;8.20;99.90;;;;;;5015268;28;20204;-78
2021/12/29 07:12:53;;;;;;;12.47;11.77;;;8.30;99.90;;;;;;5014664;28;20224;-77
2021/12/29 07:15:20;;;;;;;13.03;12.13;;;8.30;99.90;;;;;;5014297;28;20666;-78
2021/12/29 07:17:47;;;;;;;12.63;11.83;;;8.30;99.90;;;;;;5013549;28;20606;-78
2021/12/29 07:20:15;;;;;;;12.90;12.20;;;8.30;99.90;;;;;;5014753;28;20205;-79
2021/12/29 07:22:42;;;;;;;12.80;12.00;;;8.30;99.90;;;;;;5014977;28;20570;-78
2021/12/29 07:25:09;;;;;;;13.23;12.30;;;8.30;99.90;;;;;;5013303;28;20196;-78
2021/12/29 07:27:36;;;;;;;13.13;12.23;;;8.30;99.90;;;;;;5014602;28;20216;-78
2021/12/29 07:30:04;;;;;;;13.00;12.20;;;8.30;99.90;;;;;;5014813;28;20207;-78
2021/12/29 07:32:31;;;;;;;13.10;12.30;;;8.30;99.90;;;;;;5012408;28;20196;-78
2021/12/29 07:34:59;;;;;;;13.27;12.03;;;8.30;99.90;;;;;;5012474;28;20200;-77
2021/12/29 07:37:27;;;;;;;13.00;12.20;;;8.30;99.90;;;;;;5011983;28;20230;-78
2021/12/29 07:39:54;;;;;;;12.80;11.90;;;8.30;99.90;;;;;;5012501;28;20205;-78
2021/12/29 07:42:21;;;;;;;12.33;11.67;;;8.30;99.90;;;;;;5015824;28;20204;-78
2021/12/29 07:44:52;;;;;;;12.70;11.90;;;8.30;99.90;;;;;;5009814;28;20220;-79
2021/12/29 07:47:19;;;;;;;12.23;11.53;;;8.40;99.90;;;;;;5011844;28;20662;-78
2021/12/29 07:49:46;;;;;;;12.30;11.50;;;8.40;99.90;;;;;;5014980;28;20200;-78
2021/12/29 07:52:13;;;;;;;12.20;11.50;;;8.40;99.90;;;;;;5014159;28;20217;-78
2021/12/29 07:54:41;;;;;;;13.23;12.40;;;8.40;99.90;;;;;;5011705;28;20207;-78
2021/12/29 07:57:08;;;;;;;12.80;12.00;;;8.40;99.90;;;;;;5011699;28;20587;-78
2021/12/29 07:59:35;;;;;;;12.50;11.80;;;8.40;99.90;;;;;;5014599;28;20199;-78
2021/12/29 08:02:02;;;;;;;12.50;11.80;;;8.40;99.90;;;;;;5015868;28;20705;-78
2021/12/29 08:04:29;;;;;;;12.77;12.07;;;8.40;99.90;;;;;;5013435;28;20201;-78
2021/12/29 08:06:56;;;;;;;12.77;12.07;;;8.50;99.90;;;;;;5015461;28;20203;-78
2021/12/29 08:09:23;;;;;;;12.90;11.90;;;8.50;99.90;;;;;;5011054;28;20231;-78
2021/12/29 08:11:51;;;;;;;12.70;12.00;;;8.50;99.90;;;;;;5013274;28;20197;-78
2021/12/29 08:14:18;;;;;;;13.17;12.30;;;8.50;99.90;;;;;;5021305;28;20680;-78
2021/12/29 08:16:45;;;;;;;13.03;12.23;;;8.60;99.90;;;;;;5013405;28;20274;-78
2021/12/29 08:19:12;;;;;;;13.33;12.43;;;8.70;99.90;;;;;;5013163;28;20275;-78
2021/12/29 08:21:39;;;;;;;12.77;12.07;;;8.70;99.90;;;;;;5015114;28;20192;-78
2021/12/29 08:24:06;;;;;;;12.37;11.67;;;8.80;99.90;;;;;;5015517;28;20201;-78
2021/12/29 08:26:33;;;;;;;13.50;12.80;;;8.80;99.90;;;;;;5012091;28;20204;-78
2021/12/29 08:29:01;;;;;;;12.83;12.00;;;8.80;99.90;;;;;;5015965;28;20231;-78
2021/12/29 08:31:28;;;;;;;14.97;14.00;;;8.80;99.90;;;;;;5016473;28;20208;-78
2021/12/29 08:33:56;;;;;;;13.43;12.53;;;8.80;99.90;;;;;;5018078;28;20684;-78
2021/12/29 08:36:23;;;;;;;12.73;11.90;;;8.90;99.90;;;;;;5016128;28;20448;-79
2021/12/29 08:38:50;;;;;;;5.23;4.90;;;8.90;99.90;;;;;;5016412;28;20244;-78
2021/12/29 08:41:17;;;;;;;3.30;3.10;;;9.00;99.90;;;;;;5017258;28;20200;-78
2021/12/29 08:43:46;;;;;;;3.43;3.10;;;9.00;99.90;;;;;;5015324;28;20219;-79
2021/12/29 08:46:16;;;;;;;3.20;2.90;;;9.10;99.90;;;;;;5015286;28;20212;-78
2021/12/29 08:48:43;;;;;;;3.23;2.93;;;9.20;99.90;;;;;;5015761;28;20617;-83
2021/12/29 08:51:10;;;;;;;3.20;2.90;;;9.20;99.90;;;;;;5017820;28;20204;-80
2021/12/29 08:53:37;;;;;;;2.90;2.70;;;9.20;99.90;;;;;;5016069;28;20216;-79
2021/12/29 08:56:05;;;;;;;3.20;2.93;;;9.30;99.90;;;;;;5016885;28;20215;-80
2021/12/29 08:58:32;;;;;;;3.23;2.93;;;9.30;99.90;;;;;;5016361;28;20765;-80
2021/12/29 09:01:00;;;;;;;3.50;2.90;;;9.30;99.90;;;;;;5017404;28;20199;-79
2021/12/29 09:03:29;;;;;;;3.20;2.90;;;9.30;99.90;;;;;;5014984;28;20207;-80
2021/12/29 09:05:56;;;;;;;3.00;2.70;;;9.30;99.90;;;;;;5016151;28;20196;-80
2021/12/29 09:08:23;;;;;;;2.87;2.67;;;9.30;99.90;;;;;;5012939;28;20221;-82
2021/12/29 09:10:49;;;;;;;3.30;3.00;;;9.40;99.90;;;;;;5015838;28;20196;-81
2021/12/29 09:13:17;;;;;;;3.57;3.10;;;9.40;99.90;;;;;;5015238;28;20637;-81
2021/12/29 09:15:44;;;;;;;3.10;2.90;;;9.40;99.90;;;;;;5014045;28;20204;-81
2021/12/29 09:18:11;;;;;;;3.73;2.90;;;9.40;99.90;;;;;;5014864;28;20232;-82
2021/12/29 09:20:45;;;;;;;3.13;2.90;;;9.40;99.90;;;;;;5015709;28;20204;-82
2021/12/29 09:23:13;;;;;;;5.20;3.17;;;9.40;99.90;;;;;;5017540;28;20662;-81
2021/12/29 09:25:43;;;;;;;6.13;3.10;;;9.50;99.90;;;;;;5014154;28;20564;-78
2021/12/29 09:28:12;;;;;;;3.53;3.07;;;9.50;99.90;;;;;;5009603;28;20232;-76
2021/12/29 09:30:41;;;;;;;3.73;3.23;;;9.60;99.90;;;;;;5016184;28;20209;-79
2021/12/29 09:33:08;;;;;;;4.20;3.80;;;9.70;99.90;;;;;;5006076;28;20200;-78
2021/12/29 09:35:35;;;;;;;4.30;3.90;;;9.70;99.90;;;;;;5016938;28;20251;-80
2021/12/29 09:38:05;;;;;;;3.33;3.10;;;9.90;99.90;;;;;;5014732;28;20228;-83
2021/12/29 09:40:33;;;;;;;9.90;9.40;;;9.90;99.90;;;;;;5021903;28;20215;-82
2021/12/29 09:43:00;;;;;;;9.57;8.80;;;10.00;99.90;;;;;;5007435;28;20343;-83
2021/12/29 09:45:27;;;;;;;6.70;6.20;;;10.10;99.90;;;;;;5015571;28;20203;-81
2021/12/29 09:47:57;;;;;;;8.50;7.77;;;10.20;99.90;;;;;;5012776;28;20213;-82
2021/12/29 09:50:25;;;;;;;10.93;10.33;;;10.20;99.90;;;;;;5014171;28;20666;-83
2021/12/29 09:52:52;;;;;;;11.90;11.20;;;10.20;99.90;;;;;;5015179;28;20207;-76
2021/12/29 09:55:23;;;;;;;12.20;11.30;;;10.20;99.90;;;;;;5014264;28;20541;-81
2021/12/29 09:57:52;;;;;;;12.63;11.87;;;10.20;99.90;;;;;;5015865;28;20228;-78
2021/12/29 10:00:25;;;;;;;12.13;11.43;;;10.20;99.90;;;;;;5015289;28;20197;-79
2021/12/29 10:02:53;;;;;;;13.40;12.63;;;10.30;99.90;;;;;;5010538;28;20634;-78
2021/12/29 10:05:24;;;;;;;5.33;4.93;;;10.30;99.90;;;;;;5012478;28;20213;-78
2021/12/29 10:07:59;;;;;;;4.57;4.17;;;10.40;99.90;;;;;;5016047;28;20240;-80
2021/12/29 10:10:28;;;;;;;4.60;4.20;;;10.40;99.90;;;;;;5013249;28;20211;-80
2021/12/29 10:12:56;;;;;;;9.63;8.83;;;10.40;99.90;;;;;;5015809;28;20207;-78
2021/12/29 10:15:28;;;;;;;8.60;8.00;;;10.40;99.90;;;;;;5014889;28;20219;-78
2021/12/29 10:18:02;;;;;;;9.20;8.53;;;10.40;99.90;;;;;;5010471;28;20228;-78
2021/12/29 10:20:29;;;;;;;10.17;9.57;;;10.40;99.90;;;;;;5016674;28;20201;-77
2021/12/29 10:22:56;;;;;;;8.57;8.00;;;10.50;99.90;;;;;;5011504;28;20224;-79
2021/12/29 10:25:24;;;;;;;7.83;7.13;;;10.50;99.90;;;;;;5014026;28;20685;-78
2021/12/29 10:27:53;;;;;;;6.90;6.50;;;10.60;99.90;;;;;;5041954;23;20232;-76
2021/12/29 10:30:22;;;;;;;10.20;9.60;;;10.60;99.90;;;;;;5072225;28;20214;-76
2021/12/29 10:32:50;;;;;;;6.30;5.90;;;10.60;99.90;;;;;;5072528;28;20189;-76
2021/12/29 10:35:23;;;;;;;7.70;7.20;;;10.70;99.90;;;;;;5062864;28;20198;-77
2021/12/29 10:37:52;;;;;;;3.73;3.43;;;10.70;99.90;;;;;;5057605;28;20237;-77
2021/12/29 10:40:27;;;;;;;6.63;6.23;;;10.70;99.90;;;;;;5055900;28;20697;-76
2021/12/29 10:42:56;;;;;;;4.40;4.10;;;10.70;99.90;;;;;;5040520;28;20191;-79
2021/12/29 10:45:32;;;;;;;7.83;7.27;;;10.70;99.90;;;;;;5060695;28;20195;-77
2021/12/29 10:47:58;;;;;;;4.67;4.27;;;10.70;99.90;;;;;;5039562;28;20221;-77
2021/12/29 10:50:27;;;;;;;4.20;3.80;;;10.70;99.90;;;;;;5059942;28;20198;-77
2021/12/29 10:52:57;;;;;;;3.70;3.00;;;10.80;99.90;;;;;;5059212;28;20187;-77
2021/12/29 10:55:32;;;;;;;11.23;10.53;;;10.80;99.90;;;;;;5051339;28;20191;-77
2021/12/29 10:58:10;;;;;;;4.60;4.30;;;10.80;99.90;;;;;;5046392;28;20258;-78
2021/12/29 11:00:39;;;;;;;7.43;6.83;;;10.80;99.90;;;;;;5037108;28;20195;-77
2021/12/29 11:03:12;;;;;;;7.67;7.20;;;10.70;99.90;;;;;;5037636;28;20199;-77
2021/12/29 11:05:41;;;;;;;6.07;4.00;;;10.70;99.90;;;;;;5044979;28;20194;-78
2021/12/29 11:08:10;;;;;;;4.63;4.17;;;10.70;99.90;;;;;;5054953;28;20590;-77
2021/12/29 11:10:37;;;;;;;3.63;3.30;;;10.70;99.90;;;;;;5058914;28;20206;-77
2021/12/29 11:13:07;;;;;;;4.67;4.37;;;10.70;99.90;;;;;;5055929;28;20245;-77
2021/12/29 11:15:38;;;;;;;12.00;11.10;;;10.70;99.90;;;;;;5060029;28;20241;-77
2021/12/29 11:18:08;;;;;;;6.67;4.80;;;10.60;99.90;;;;;;5053939;28;20215;-78
2021/12/29 11:20:36;;;;;;;5.33;4.73;;;10.60;99.90;;;;;;5041181;28;20195;-79
2021/12/29 11:23:10;;;;;;;10.50;9.80;;;10.60;99.90;;;;;;5052705;28;20290;-78
2021/12/29 11:25:38;;;;;;;5.33;4.93;;;10.60;99.90;;;;;;5044389;28;20606;-78
2021/12/29 11:28:08;;;;;;;3.60;3.30;;;10.60;99.90;;;;;;5055058;28;20218;-78
2021/12/29 11:30:40;;;;;;;5.20;4.80;;;10.60;99.90;;;;;;5047279;28;20309;-78
2021/12/29 11:33:09;;;;;;;3.40;3.10;;;10.60;99.90;;;;;;5058356;28;20198;-79
2021/12/29 11:35:42;;;;;;;5.23;4.83;;;10.60;99.90;;;;;;5059545;28;20696;-80
2021/12/29 11:38:11;;;;;;;4.73;4.33;;;10.60;99.90;;;;;;5037131;28;20227;-76
2021/12/29 11:40:41;;;;;;;5.57;5.07;;;10.60;99.90;;;;;;5044040;28;20191;-77
2021/12/29 11:43:09;;;;;;;9.93;9.13;;;10.70;99.90;;;;;;5060572;28;20281;-78
2021/12/29 11:45:38;;;;;;;5.70;4.40;;;10.70;99.90;;;;;;5059394;28;20199;-78
2021/12/29 11:48:07;;;;;;;9.63;9.03;;;10.80;99.90;;;;;;5059422;28;20234;-78
2021/12/29 11:50:38;;;;;;;4.33;3.60;;;10.80;99.90;;;;;;5039851;28;20203;-78
2021/12/29 11:53:15;;;;;;;13.70;12.60;;;10.90;99.90;;;;;;5054396;28;20200;-78
2021/12/29 11:55:44;;;;;;;13.40;12.47;;;10.90;99.90;;;;;;5056244;28;20191;-78
2021/12/29 11:58:16;;;;;;;13.23;12.33;;;11.00;99.90;;;;;;5057942;28;20226;-78
2021/12/29 12:00:47;;;;;;;12.97;12.17;;;11.00;99.90;;;;;;5044315;28;20249;-78
2021/12/29 12:03:16;;;;;;;13.30;12.30;;;11.00;99.90;;;;;;5054031;28;20204;-78
2021/12/29 12:05:47;;;;;;;13.67;12.57;;;11.10;99.90;;;;;;5043380;28;20210;-78
2021/12/29 12:08:16;;;;;;;12.87;11.97;;;11.10;99.90;;;;;;5042646;28;20211;-78
2021/12/29 12:10:43;;;;;;;13.83;12.17;;;11.00;99.90;;;;;;5061658;28;20191;-78
2021/12/29 12:13:25;;;;;;;14.23;13.03;;;11.00;99.90;;;;;;5046542;28;20214;-78
2021/12/29 12:15:53;;;;;;;13.33;12.13;;;10.90;99.90;;;;;;5041153;28;20203;-78
2021/12/29 12:18:20;;;;;;;13.10;12.00;;;10.90;99.90;;;;;;5056455;28;20216;-78
2021/12/29 12:20:49;;;;;;;13.93;12.90;;;10.90;99.90;;;;;;5058175;28;20199;-78
2021/12/29 12:23:24;;;;;;;13.80;12.77;;;10.90;99.90;;;;;;5054568;28;20250;-78
2021/12/29 12:25:52;;;;;;;13.27;12.27;;;10.80;99.90;;;;;;5037740;28;20200;-78
2021/12/29 12:28:23;;;;;;;13.07;12.17;;;10.80;99.90;;;;;;5047827;28;20770;-78
2021/12/29 12:30:54;;;;;;;13.43;12.40;;;10.80;99.90;;;;;;5044936;28;20214;-78
2021/12/29 12:33:26;;;;;;;14.03;12.80;;;10.80;99.90;;;;;;5069692;28;20203;-78
2021/12/29 12:35:54;;;;;;;12.90;11.97;;;11.00;99.90;;;;;;5059905;28;20613;-78
2021/12/29 12:38:27;;;;;;;13.73;12.50;;;11.20;99.90;;;;;;5062782;28;20215;-78
2021/12/29 12:41:02;;;;;;;13.73;12.70;;;11.30;99.90;;;;;;5063089;28;20192;-78
2021/12/29 12:43:31;;;;;;;13.30;12.40;;;11.40;99.90;;;;;;5055365;28;20559;-78
2021/12/29 12:45:58;;;;;;;13.13;12.23;;;11.40;99.90;;;;;;5062582;28;20695;-78
2021/12/29 12:48:30;;;;;;;13.73;12.70;;;11.30;99.90;;;;;;5058155;28;20203;-78
2021/12/29 12:51:01;;;;;;;12.67;11.77;;;11.30;99.90;;;;;;5066764;28;20663;-78